sensor_id;sensor_type;location;lat;lon;timestamp;temperature;humidity
17174;DHT22;8702;48.130;-1.696;2022-08-19T00:00:37;21.00;99.90
17174;DHT22;8702;48.130;-1.696;2022-08-19T00:03:05;20.90;99.90
17174;DHT22;8702;48.130;-1.696;2022-08-19T00:05:33;20.80;99.90
17174;DHT22;8702;48.130;-1.696;2022-08-19T00:08:00;20.70;99.90
17174;DHT22;8702;48.130;-1.696;2022-08-19T00:10:27;20.70;99.90
17174;DHT22;8702;48.130;-1.696;2022-08-19T00:12:56;20.70;99.90
17174;DHT22;8702;48.130;-1.696;2022-08-19T00:15:23;20.70;99.90
17174;DHT22;8702;48.130;-1.696;2022-08-19T00:17:50;20.80;99.90
17174;DHT22;8702;48.130;-1.696;2022-08-19T00:20:21;20.80;99.90
17174;DHT22;8702;48.130;-1.696;2022-08-19T00:22:48;20.80;99.90
17174;DHT22;8702;48.130;-1.696;2022-08-19T00:25:15;20.90;99.90
17174;DHT22;8702;48.130;-1.696;2022-08-19T00:27:42;20.80;99.90
17174;DHT22;8702;48.130;-1.696;2022-08-19T00:30:12;20.70;99.90
17174;DHT22;8702;48.130;-1.696;2022-08-19T00:32:39;20.70;99.90
17174;DHT22;8702;48.130;-1.696;2022-08-19T00:35:07;20.70;99.90
17174;DHT22;8702;48.130;-1.696;2022-08-19T00:37:35;20.70;99.90
17174;DHT22;8702;48.130;-1.696;2022-08-19T00:40:03;20.70;99.90
17174;DHT22;8702;48.130;-1.696;2022-08-19T00:42:31;20.70;99.90
17174;DHT22;8702;48.130;-1.696;2022-08-19T00:44:58;20.60;99.90
17174;DHT22;8702;48.130;-1.696;2022-08-19T00:47:26;20.70;99.90
17174;DHT22;8702;48.130;-1.696;2022-08-19T00:49:56;20.80;99.90
17174;DHT22;8702;48.130;-1.696;2022-08-19T00:52:27;20.70;99.90
17174;DHT22;8702;48.130;-1.696;2022-08-19T00:54:56;20.60;99.90
17174;DHT22;8702;48.130;-1.696;2022-08-19T00:57:28;20.70;99.90
17174;DHT22;8702;48.130;-1.696;2022-08-19T00:59:58;20.70;99.90
17174;DHT22;8702;48.130;-1.696;2022-08-19T01:02:27;20.70;99.90
17174;DHT22;8702;48.130;-1.696;2022-08-19T01:04:54;20.60;99.90
17174;DHT22;8702;48.130;-1.696;2022-08-19T01:07:22;20.60;99.90
17174;DHT22;8702;48.130;-1.696;2022-08-19T01:09:49;20.70;99.90
17174;DHT22;8702;48.130;-1.696;2022-08-19T01:12:17;20.70;99.90
17174;DHT22;8702;48.130;-1.696;2022-08-19T01:14:45;20.70;99.90
17174;DHT22;8702;48.130;-1.696;2022-08-19T01:17:12;20.70;99.90
17174;DHT22;8702;48.130;-1.696;2022-08-19T01:19:43;20.80;99.90
17174;DHT22;8702;48.130;-1.696;2022-08-19T01:22:16;20.70;99.90
17174;DHT22;8702;48.130;-1.696;2022-08-19T01:24:45;20.70;99.90
17174;DHT22;8702;48.130;-1.696;2022-08-19T01:27:12;20.60;99.90
17174;DHT22;8702;48.130;-1.696;2022-08-19T01:29:41;20.50;99.90
17174;DHT22;8702;48.130;-1.696;2022-08-19T01:32:09;20.60;99.90
17174;DHT22;8702;48.130;-1.696;2022-08-19T01:34:38;20.50;99.90
17174;DHT22;8702;48.130;-1.696;2022-08-19T01:37:06;20.50;99.90
17174;DHT22;8702;48.130;-1.696;2022-08-19T01:39:37;20.50;99.90
17174;DHT22;8702;48.130;-1.696;2022-08-19T01:42:06;20.50;99.90
17174;DHT22;8702;48.130;-1.696;2022-08-19T01:44:37;20.50;99.90
17174;DHT22;8702;48.130;-1.696;2022-08-19T01:47:04;20.50;99.90
17174;DHT22;8702;48.130;-1.696;2022-08-19T01:49:31;20.40;99.90
17174;DHT22;8702;48.130;-1.696;2022-08-19T01:52:00;20.50;99.90
17174;DHT22;8702;48.130;-1.696;2022-08-19T01:54:27;20.50;99.90
17174;DHT22;8702;48.130;-1.696;2022-08-19T01:56:57;20.50;99.90
17174;DHT22;8702;48.130;-1.696;2022-08-19T01:59:28;20.50;99.90
17174;DHT22;8702;48.130;-1.696;2022-08-19T02:01:55;20.40;99.90
17174;DHT22;8702;48.130;-1.696;2022-08-19T02:04:22;20.30;99.90
17174;DHT22;8702;48.130;-1.696;2022-08-19T02:06:51;20.30;99.90
17174;DHT22;8702;48.130;-1.696;2022-08-19T02:09:18;20.30;99.90
17174;DHT22;8702;48.130;-1.696;2022-08-19T02:11:45;20.30;99.90
17174;DHT22;8702;48.130;-1.696;2022-08-19T02:14:12;20.30;99.90
17174;DHT22;8702;48.130;-1.696;2022-08-19T02:16:40;20.30;99.90
17174;DHT22;8702;48.130;-1.696;2022-08-19T02:19:08;20.30;99.90
17174;DHT22;8702;48.130;-1.696;2022-08-19T02:21:36;20.40;99.90
17174;DHT22;8702;48.130;-1.696;2022-08-19T02:24:03;20.40;99.90
17174;DHT22;8702;48.130;-1.696;2022-08-19T02:26:32;20.30;99.90
17174;DHT22;8702;48.130;-1.696;2022-08-19T02:28:59;20.20;99.90
17174;DHT22;8702;48.130;-1.696;2022-08-19T02:31:26;20.20;99.90
17174;DHT22;8702;48.130;-1.696;2022-08-19T02:33:55;20.20;99.90
17174;DHT22;8702;48.130;-1.696;2022-08-19T02:36:23;20.20;99.90
17174;DHT22;8702;48.130;-1.696;2022-08-19T02:38:51;20.20;99.90
17174;DHT22;8702;48.130;-1.696;2022-08-19T02:41:19;20.30;99.90
17174;DHT22;8702;48.130;-1.696;2022-08-19T02:43:46;20.30;99.90
17174;DHT22;8702;48.130;-1.696;2022-08-19T02:46:14;20.30;99.90
17174;DHT22;8702;48.130;-1.696;2022-08-19T02:48:46;20.20;99.90
17174;DHT22;8702;48.130;-1.696;2022-08-19T02:51:18;20.30;99.90
17174;DHT22;8702;48.130;-1.696;2022-08-19T02:53:45;20.30;99.90
17174;DHT22;8702;48.130;-1.696;2022-08-19T02:56:13;20.40;99.90
17174;DHT22;8702;48.130;-1.696;2022-08-19T02:58:40;20.50;99.90
17174;DHT22;8702;48.130;-1.696;2022-08-19T03:01:09;20.50;99.90
17174;DHT22;8702;48.130;-1.696;2022-08-19T03:03:38;20.50;99.90
17174;DHT22;8702;48.130;-1.696;2022-08-19T03:06:07;20.50;99.90
17174;DHT22;8702;48.130;-1.696;2022-08-19T03:08:36;20.50;99.90
17174;DHT22;8702;48.130;-1.696;2022-08-19T03:11:03;20.50;99.90
17174;DHT22;8702;48.130;-1.696;2022-08-19T03:13:31;20.40;99.90
17174;DHT22;8702;48.130;-1.696;2022-08-19T03:15:58;20.30;99.90
17174;DHT22;8702;48.130;-1.696;2022-08-19T03:18:25;20.30;99.90
17174;DHT22;8702;48.130;-1.696;2022-08-19T03:20:53;20.30;99.90
17174;DHT22;8702;48.130;-1.696;2022-08-19T03:23:20;20.30;99.90
17174;DHT22;8702;48.130;-1.696;2022-08-19T03:25:51;20.40;99.90
17174;DHT22;8702;48.130;-1.696;2022-08-19T03:28:20;20.60;99.90
17174;DHT22;8702;48.130;-1.696;2022-08-19T03:30:58;20.40;99.90
17174;DHT22;8702;48.130;-1.696;2022-08-19T03:33:27;20.40;99.90
17174;DHT22;8702;48.130;-1.696;2022-08-19T03:36:03;20.40;99.90
17174;DHT22;8702;48.130;-1.696;2022-08-19T03:38:30;20.30;99.90
17174;DHT22;8702;48.130;-1.696;2022-08-19T03:41:02;20.30;99.90
17174;DHT22;8702;48.130;-1.696;2022-08-19T03:43:32;20.30;99.90
17174;DHT22;8702;48.130;-1.696;2022-08-19T03:46:02;20.30;99.90
17174;DHT22;8702;48.130;-1.696;2022-08-19T03:48:30;20.30;99.90
17174;DHT22;8702;48.130;-1.696;2022-08-19T03:50:57;20.30;99.90
17174;DHT22;8702;48.130;-1.696;2022-08-19T03:53:25;20.40;99.90
17174;DHT22;8702;48.130;-1.696;2022-08-19T03:55:53;20.40;99.90
17174;DHT22;8702;48.130;-1.696;2022-08-19T03:58:22;20.40;99.90
17174;DHT22;8702;48.130;-1.696;2022-08-19T04:00:49;20.40;99.90
17174;DHT22;8702;48.130;-1.696;2022-08-19T04:03:16;20.40;99.90
17174;DHT22;8702;48.130;-1.696;2022-08-19T04:05:45;20.40;99.90
17174;DHT22;8702;48.130;-1.696;2022-08-19T04:08:13;20.30;99.90
17174;DHT22;8702;48.130;-1.696;2022-08-19T04:10:46;20.30;99.90
17174;DHT22;8702;48.130;-1.696;2022-08-19T04:13:13;20.30;99.90
17174;DHT22;8702;48.130;-1.696;2022-08-19T04:15:43;20.30;99.90
17174;DHT22;8702;48.130;-1.696;2022-08-19T04:18:12;20.30;99.90
17174;DHT22;8702;48.130;-1.696;2022-08-19T04:20:41;20.30;99.90
17174;DHT22;8702;48.130;-1.696;2022-08-19T04:23:08;20.40;99.90
17174;DHT22;8702;48.130;-1.696;2022-08-19T04:25:37;20.50;99.90
17174;DHT22;8702;48.130;-1.696;2022-08-19T04:28:04;20.40;99.90
17174;DHT22;8702;48.130;-1.696;2022-08-19T04:30:36;20.30;99.90
17174;DHT22;8702;48.130;-1.696;2022-08-19T04:33:05;20.40;99.90
17174;DHT22;8702;48.130;-1.696;2022-08-19T04:35:35;20.40;99.90
17174;DHT22;8702;48.130;-1.696;2022-08-19T04:38:03;20.40;99.90
17174;DHT22;8702;48.130;-1.696;2022-08-19T04:40:30;20.30;99.90
17174;DHT22;8702;48.130;-1.696;2022-08-19T04:43:14;20.40;99.90
17174;DHT22;8702;48.130;-1.696;2022-08-19T04:45:41;20.50;99.90
17174;DHT22;8702;48.130;-1.696;2022-08-19T04:48:10;20.40;99.90
17174;DHT22;8702;48.130;-1.696;2022-08-19T04:50:40;20.40;99.90
17174;DHT22;8702;48.130;-1.696;2022-08-19T04:53:08;20.50;99.90
17174;DHT22;8702;48.130;-1.696;2022-08-19T04:55:38;20.50;99.90
17174;DHT22;8702;48.130;-1.696;2022-08-19T04:58:05;20.40;99.90
17174;DHT22;8702;48.130;-1.696;2022-08-19T05:00:32;20.40;99.90
17174;DHT22;8702;48.130;-1.696;2022-08-19T05:02:59;20.30;99.90
17174;DHT22;8702;48.130;-1.696;2022-08-19T05:05:28;20.30;99.90
17174;DHT22;8702;48.130;-1.696;2022-08-19T05:07:57;20.30;99.90
17174;DHT22;8702;48.130;-1.696;2022-08-19T05:10:24;20.30;99.90
17174;DHT22;8702;48.130;-1.696;2022-08-19T05:12:51;20.40;99.90
17174;DHT22;8702;48.130;-1.696;2022-08-19T05:15:18;20.30;99.90
17174;DHT22;8702;48.130;-1.696;2022-08-19T05:17:45;20.30;99.90
17174;DHT22;8702;48.130;-1.696;2022-08-19T05:20:27;20.30;99.90
17174;DHT22;8702;48.130;-1.696;2022-08-19T05:23:12;20.30;99.90
17174;DHT22;8702;48.130;-1.696;2022-08-19T05:25:42;20.40;99.90
17174;DHT22;8702;48.130;-1.696;2022-08-19T05:28:10;20.40;99.90
17174;DHT22;8702;48.130;-1.696;2022-08-19T05:30:37;20.40;99.90
17174;DHT22;8702;48.130;-1.696;2022-08-19T05:33:06;20.40;99.90
17174;DHT22;8702;48.130;-1.696;2022-08-19T05:35:39;20.30;99.90
17174;DHT22;8702;48.130;-1.696;2022-08-19T05:38:07;20.20;99.90
17174;DHT22;8702;48.130;-1.696;2022-08-19T05:40:35;20.10;99.90
17174;DHT22;8702;48.130;-1.696;2022-08-19T05:43:03;20.10;99.90
17174;DHT22;8702;48.130;-1.696;2022-08-19T05:45:30;20.10;99.90
17174;DHT22;8702;48.130;-1.696;2022-08-19T05:47:57;20.10;99.90
17174;DHT22;8702;48.130;-1.696;2022-08-19T05:50:25;20.20;99.90
17174;DHT22;8702;48.130;-1.696;2022-08-19T05:52:53;20.20;99.90
17174;DHT22;8702;48.130;-1.696;2022-08-19T05:55:20;20.20;99.90
17174;DHT22;8702;48.130;-1.696;2022-08-19T05:57:47;20.20;99.90
17174;DHT22;8702;48.130;-1.696;2022-08-19T06:00:15;20.20;99.90
17174;DHT22;8702;48.130;-1.696;2022-08-19T06:02:42;20.20;99.90
17174;DHT22;8702;48.130;-1.696;2022-08-19T06:05:10;20.10;99.90
17174;DHT22;8702;48.130;-1.696;2022-08-19T06:07:38;20.10;99.90
17174;DHT22;8702;48.130;-1.696;2022-08-19T06:10:08;20.00;99.90
17174;DHT22;8702;48.130;-1.696;2022-08-19T06:12:36;20.10;99.90
17174;DHT22;8702;48.130;-1.696;2022-08-19T06:15:06;20.10;99.90
17174;DHT22;8702;48.130;-1.696;2022-08-19T06:17:33;20.10;99.90
17174;DHT22;8702;48.130;-1.696;2022-08-19T06:20:01;20.20;99.90
17174;DHT22;8702;48.130;-1.696;2022-08-19T06:22:28;20.20;99.90
17174;DHT22;8702;48.130;-1.696;2022-08-19T06:24:55;20.20;99.90
17174;DHT22;8702;48.130;-1.696;2022-08-19T06:27:24;20.20;99.90
17174;DHT22;8702;48.130;-1.696;2022-08-19T06:29:51;20.20;99.90
17174;DHT22;8702;48.130;-1.696;2022-08-19T06:32:18;20.20;99.90
17174;DHT22;8702;48.130;-1.696;2022-08-19T06:34:46;20.20;99.90
17174;DHT22;8702;48.130;-1.696;2022-08-19T06:37:14;20.00;99.90
17174;DHT22;8702;48.130;-1.696;2022-08-19T06:39:43;20.20;99.90
17174;DHT22;8702;48.130;-1.696;2022-08-19T06:42:11;20.20;99.90
17174;DHT22;8702;48.130;-1.696;2022-08-19T06:44:44;20.30;99.90
17174;DHT22;8702;48.130;-1.696;2022-08-19T06:47:15;20.40;99.90
17174;DHT22;8702;48.130;-1.696;2022-08-19T06:49:42;20.40;99.90
17174;DHT22;8702;48.130;-1.696;2022-08-19T06:52:10;20.30;99.90
17174;DHT22;8702;48.130;-1.696;2022-08-19T06:54:39;20.30;99.90
17174;DHT22;8702;48.130;-1.696;2022-08-19T06:57:06;20.30;99.90
17174;DHT22;8702;48.130;-1.696;2022-08-19T06:59:35;20.20;99.90
17174;DHT22;8702;48.130;-1.696;2022-08-19T07:02:05;20.30;99.90
17174;DHT22;8702;48.130;-1.696;2022-08-19T07:04:34;20.30;99.90
17174;DHT22;8702;48.130;-1.696;2022-08-19T07:07:06;20.20;99.90
17174;DHT22;8702;48.130;-1.696;2022-08-19T07:09:36;20.20;99.90
17174;DHT22;8702;48.130;-1.696;2022-08-19T07:12:04;20.20;99.90
17174;DHT22;8702;48.130;-1.696;2022-08-19T07:14:33;20.30;99.90
17174;DHT22;8702;48.130;-1.696;2022-08-19T07:17:06;20.30;99.90
17174;DHT22;8702;48.130;-1.696;2022-08-19T07:19:34;20.20;99.90
17174;DHT22;8702;48.130;-1.696;2022-08-19T07:22:03;20.30;99.90
17174;DHT22;8702;48.130;-1.696;2022-08-19T07:24:31;20.30;99.90
17174;DHT22;8702;48.130;-1.696;2022-08-19T07:27:00;20.30;99.90
17174;DHT22;8702;48.130;-1.696;2022-08-19T07:29:29;20.30;99.90
17174;DHT22;8702;48.130;-1.696;2022-08-19T07:31:59;20.30;99.90
17174;DHT22;8702;48.130;-1.696;2022-08-19T07:34:29;20.30;99.90
17174;DHT22;8702;48.130;-1.696;2022-08-19T07:37:00;20.30;99.90
17174;DHT22;8702;48.130;-1.696;2022-08-19T07:39:32;20.40;99.90
17174;DHT22;8702;48.130;-1.696;2022-08-19T07:42:02;20.40;99.90
17174;DHT22;8702;48.130;-1.696;2022-08-19T07:44:31;20.50;99.90
17174;DHT22;8702;48.130;-1.696;2022-08-19T07:47:00;20.50;99.90
17174;DHT22;8702;48.130;-1.696;2022-08-19T07:49:29;20.50;99.90
17174;DHT22;8702;48.130;-1.696;2022-08-19T07:51:59;20.50;99.90
17174;DHT22;8702;48.130;-1.696;2022-08-19T07:54:28;20.50;99.90
17174;DHT22;8702;48.130;-1.696;2022-08-19T07:56:56;20.50;99.90
17174;DHT22;8702;48.130;-1.696;2022-08-19T07:59:24;20.50;99.90
17174;DHT22;8702;48.130;-1.696;2022-08-19T08:01:51;20.60;99.90
17174;DHT22;8702;48.130;-1.696;2022-08-19T08:04:19;20.60;99.90
17174;DHT22;8702;48.130;-1.696;2022-08-19T08:07:07;20.60;99.90
17174;DHT22;8702;48.130;-1.696;2022-08-19T08:09:52;20.60;99.90
17174;DHT22;8702;48.130;-1.696;2022-08-19T08:12:22;20.70;99.90
17174;DHT22;8702;48.130;-1.696;2022-08-19T08:14:53;20.80;99.90
17174;DHT22;8702;48.130;-1.696;2022-08-19T08:17:24;20.90;99.90
17174;DHT22;8702;48.130;-1.696;2022-08-19T08:19:51;20.90;99.90
17174;DHT22;8702;48.130;-1.696;2022-08-19T08:22:21;20.90;99.90
17174;DHT22;8702;48.130;-1.696;2022-08-19T08:25:09;21.00;99.90
17174;DHT22;8702;48.130;-1.696;2022-08-19T08:27:40;21.00;99.90
17174;DHT22;8702;48.130;-1.696;2022-08-19T08:30:09;21.00;99.90
17174;DHT22;8702;48.130;-1.696;2022-08-19T08:32:37;21.10;99.90
17174;DHT22;8702;48.130;-1.696;2022-08-19T08:35:06;21.10;99.90
17174;DHT22;8702;48.130;-1.696;2022-08-19T08:37:35;21.20;99.90
17174;DHT22;8702;48.130;-1.696;2022-08-19T08:40:05;21.20;99.90
17174;DHT22;8702;48.130;-1.696;2022-08-19T08:42:36;21.30;99.90
17174;DHT22;8702;48.130;-1.696;2022-08-19T08:45:12;21.30;99.90
17174;DHT22;8702;48.130;-1.696;2022-08-19T08:47:44;21.40;99.90
17174;DHT22;8702;48.130;-1.696;2022-08-19T08:50:16;21.40;99.90
17174;DHT22;8702;48.130;-1.696;2022-08-19T08:52:47;21.40;99.90
17174;DHT22;8702;48.130;-1.696;2022-08-19T08:55:18;21.40;99.90
17174;DHT22;8702;48.130;-1.696;2022-08-19T08:57:54;21.40;99.90
17174;DHT22;8702;48.130;-1.696;2022-08-19T09:00:24;21.50;99.90
17174;DHT22;8702;48.130;-1.696;2022-08-19T09:02:52;21.60;99.90
17174;DHT22;8702;48.130;-1.696;2022-08-19T09:05:20;21.70;99.90
17174;DHT22;8702;48.130;-1.696;2022-08-19T09:07:55;21.80;99.90
17174;DHT22;8702;48.130;-1.696;2022-08-19T09:10:29;21.90;99.90
17174;DHT22;8702;48.130;-1.696;2022-08-19T09:13:07;21.90;99.90
17174;DHT22;8702;48.130;-1.696;2022-08-19T09:15:40;21.90;99.90
17174;DHT22;8702;48.130;-1.696;2022-08-19T09:18:10;21.90;99.90
17174;DHT22;8702;48.130;-1.696;2022-08-19T09:20:37;21.90;99.90
17174;DHT22;8702;48.130;-1.696;2022-08-19T09:23:05;21.80;99.90
17174;DHT22;8702;48.130;-1.696;2022-08-19T09:25:33;21.90;99.90
17174;DHT22;8702;48.130;-1.696;2022-08-19T09:28:01;21.90;99.90
17174;DHT22;8702;48.130;-1.696;2022-08-19T09:30:30;22.10;99.90
17174;DHT22;8702;48.130;-1.696;2022-08-19T09:32:58;22.10;99.90
17174;DHT22;8702;48.130;-1.696;2022-08-19T09:35:27;22.20;99.90
17174;DHT22;8702;48.130;-1.696;2022-08-19T09:37:55;22.10;99.90
17174;DHT22;8702;48.130;-1.696;2022-08-19T09:40:25;22.10;99.90
17174;DHT22;8702;48.130;-1.696;2022-08-19T09:42:52;22.00;99.90
17174;DHT22;8702;48.130;-1.696;2022-08-19T09:45:21;22.10;99.90
17174;DHT22;8702;48.130;-1.696;2022-08-19T09:47:50;22.00;99.90
17174;DHT22;8702;48.130;-1.696;2022-08-19T09:50:18;22.00;99.90
17174;DHT22;8702;48.130;-1.696;2022-08-19T09:52:45;22.00;99.90
17174;DHT22;8702;48.130;-1.696;2022-08-19T09:55:12;22.00;99.90
17174;DHT22;8702;48.130;-1.696;2022-08-19T09:57:42;22.00;99.90
17174;DHT22;8702;48.130;-1.696;2022-08-19T10:00:10;22.00;99.90
17174;DHT22;8702;48.130;-1.696;2022-08-19T10:02:37;22.10;99.90
17174;DHT22;8702;48.130;-1.696;2022-08-19T10:05:05;22.10;99.90
17174;DHT22;8702;48.130;-1.696;2022-08-19T10:07:49;22.10;99.90
17174;DHT22;8702;48.130;-1.696;2022-08-19T10:10:17;22.20;99.90
17174;DHT22;8702;48.130;-1.696;2022-08-19T10:12:45;22.30;99.90
17174;DHT22;8702;48.130;-1.696;2022-08-19T10:15:13;22.40;99.90
17174;DHT22;8702;48.130;-1.696;2022-08-19T10:17:40;22.40;99.90
17174;DHT22;8702;48.130;-1.696;2022-08-19T10:20:07;22.40;99.90
17174;DHT22;8702;48.130;-1.696;2022-08-19T10:22:34;22.40;99.90
17174;DHT22;8702;48.130;-1.696;2022-08-19T10:25:04;22.30;99.90
17174;DHT22;8702;48.130;-1.696;2022-08-19T10:27:31;22.30;99.90
17174;DHT22;8702;48.130;-1.696;2022-08-19T10:30:00;22.30;99.90
17174;DHT22;8702;48.130;-1.696;2022-08-19T10:32:27;22.30;99.90
17174;DHT22;8702;48.130;-1.696;2022-08-19T10:34:55;22.30;99.90
17174;DHT22;8702;48.130;-1.696;2022-08-19T10:37:23;22.40;99.90
17174;DHT22;8702;48.130;-1.696;2022-08-19T10:39:50;22.50;99.90
17174;DHT22;8702;48.130;-1.696;2022-08-19T10:42:17;22.40;99.90
17174;DHT22;8702;48.130;-1.696;2022-08-19T10:44:46;22.50;99.90
17174;DHT22;8702;48.130;-1.696;2022-08-19T10:47:15;22.50;99.90
17174;DHT22;8702;48.130;-1.696;2022-08-19T10:49:42;22.60;99.90
17174;DHT22;8702;48.130;-1.696;2022-08-19T10:52:26;22.70;99.90
17174;DHT22;8702;48.130;-1.696;2022-08-19T10:54:59;22.60;99.90
17174;DHT22;8702;48.130;-1.696;2022-08-19T10:57:44;22.60;99.90
17174;DHT22;8702;48.130;-1.696;2022-08-19T11:00:12;22.50;99.90
17174;DHT22;8702;48.130;-1.696;2022-08-19T11:02:41;22.40;99.90
17174;DHT22;8702;48.130;-1.696;2022-08-19T11:05:08;22.30;99.90
17174;DHT22;8702;48.130;-1.696;2022-08-19T11:07:36;22.30;99.90
17174;DHT22;8702;48.130;-1.696;2022-08-19T11:10:05;22.30;99.90
17174;DHT22;8702;48.130;-1.696;2022-08-19T11:12:32;22.30;99.90
17174;DHT22;8702;48.130;-1.696;2022-08-19T11:14:59;22.30;99.90
17174;DHT22;8702;48.130;-1.696;2022-08-19T11:17:27;22.20;99.90
17174;DHT22;8702;48.130;-1.696;2022-08-19T11:19:57;22.30;99.90
17174;DHT22;8702;48.130;-1.696;2022-08-19T11:22:29;22.30;99.90
17174;DHT22;8702;48.130;-1.696;2022-08-19T11:24:56;22.40;99.90
17174;DHT22;8702;48.130;-1.696;2022-08-19T11:27:23;22.40;99.90
17174;DHT22;8702;48.130;-1.696;2022-08-19T11:29:50;22.50;99.90
17174;DHT22;8702;48.130;-1.696;2022-08-19T11:32:18;22.50;99.90
17174;DHT22;8702;48.130;-1.696;2022-08-19T11:34:45;22.40;99.90
17174;DHT22;8702;48.130;-1.696;2022-08-19T11:37:13;22.50;99.90
17174;DHT22;8702;48.130;-1.696;2022-08-19T11:39:41;22.60;99.90
17174;DHT22;8702;48.130;-1.696;2022-08-19T11:42:08;22.70;99.90
17174;DHT22;8702;48.130;-1.696;2022-08-19T11:44:49;22.80;99.90
17174;DHT22;8702;48.130;-1.696;2022-08-19T11:47:16;22.80;99.90
17174;DHT22;8702;48.130;-1.696;2022-08-19T11:49:43;22.70;99.90
17174;DHT22;8702;48.130;-1.696;2022-08-19T11:52:10;22.80;99.90
17174;DHT22;8702;48.130;-1.696;2022-08-19T11:54:38;22.90;99.90
17174;DHT22;8702;48.130;-1.696;2022-08-19T11:57:05;22.90;99.90
17174;DHT22;8702;48.130;-1.696;2022-08-19T11:59:32;23.00;99.90
17174;DHT22;8702;48.130;-1.696;2022-08-19T12:01:59;22.80;99.90
17174;DHT22;8702;48.130;-1.696;2022-08-19T12:04:26;22.70;99.90
17174;DHT22;8702;48.130;-1.696;2022-08-19T12:06:53;22.70;99.90
17174;DHT22;8702;48.130;-1.696;2022-08-19T12:09:20;22.60;99.90
17174;DHT22;8702;48.130;-1.696;2022-08-19T12:11:49;22.40;99.90
17174;DHT22;8702;48.130;-1.696;2022-08-19T12:14:16;22.40;99.90
17174;DHT22;8702;48.130;-1.696;2022-08-19T12:16:45;22.30;99.90
17174;DHT22;8702;48.130;-1.696;2022-08-19T12:19:12;22.10;99.90
17174;DHT22;8702;48.130;-1.696;2022-08-19T12:21:39;22.10;99.90
17174;DHT22;8702;48.130;-1.696;2022-08-19T12:24:07;22.20;99.90
17174;DHT22;8702;48.130;-1.696;2022-08-19T12:26:35;22.30;99.90
17174;DHT22;8702;48.130;-1.696;2022-08-19T12:29:04;22.30;99.90
17174;DHT22;8702;48.130;-1.696;2022-08-19T12:31:31;22.40;99.90
17174;DHT22;8702;48.130;-1.696;2022-08-19T12:33:58;22.50;99.90
17174;DHT22;8702;48.130;-1.696;2022-08-19T12:36:26;22.50;99.90
17174;DHT22;8702;48.130;-1.696;2022-08-19T12:38:53;22.60;99.90
17174;DHT22;8702;48.130;-1.696;2022-08-19T12:41:20;22.60;99.90
17174;DHT22;8702;48.130;-1.696;2022-08-19T12:43:48;22.50;99.90
17174;DHT22;8702;48.130;-1.696;2022-08-19T12:46:18;22.50;99.90
17174;DHT22;8702;48.130;-1.696;2022-08-19T12:48:45;22.50;99.90
17174;DHT22;8702;48.130;-1.696;2022-08-19T12:51:14;22.50;99.90
17174;DHT22;8702;48.130;-1.696;2022-08-19T12:53:42;22.60;99.90
17174;DHT22;8702;48.130;-1.696;2022-08-19T12:56:11;22.60;99.90
17174;DHT22;8702;48.130;-1.696;2022-08-19T12:58:40;22.70;99.90
17174;DHT22;8702;48.130;-1.696;2022-08-19T13:01:09;22.90;99.90
17174;DHT22;8702;48.130;-1.696;2022-08-19T13:03:38;23.00;99.90
17174;DHT22;8702;48.130;-1.696;2022-08-19T13:06:06;22.90;99.90
17174;DHT22;8702;48.130;-1.696;2022-08-19T13:08:33;22.90;99.90
17174;DHT22;8702;48.130;-1.696;2022-08-19T13:11:08;22.70;99.90
17174;DHT22;8702;48.130;-1.696;2022-08-19T13:13:37;22.70;99.90
17174;DHT22;8702;48.130;-1.696;2022-08-19T13:16:06;22.50;99.90
17174;DHT22;8702;48.130;-1.696;2022-08-19T13:18:33;22.40;99.90
17174;DHT22;8702;48.130;-1.696;2022-08-19T13:21:03;22.30;99.90
17174;DHT22;8702;48.130;-1.696;2022-08-19T13:23:31;22.40;99.90
17174;DHT22;8702;48.130;-1.696;2022-08-19T13:25:59;22.40;99.90
17174;DHT22;8702;48.130;-1.696;2022-08-19T13:28:27;22.40;99.90
17174;DHT22;8702;48.130;-1.696;2022-08-19T13:31:16;22.40;99.90
17174;DHT22;8702;48.130;-1.696;2022-08-19T13:34:00;22.50;99.90
17174;DHT22;8702;48.130;-1.696;2022-08-19T13:36:29;22.50;99.90
17174;DHT22;8702;48.130;-1.696;2022-08-19T13:38:56;22.50;99.90
17174;DHT22;8702;48.130;-1.696;2022-08-19T13:41:23;22.50;99.90
17174;DHT22;8702;48.130;-1.696;2022-08-19T13:43:50;22.60;99.90
17174;DHT22;8702;48.130;-1.696;2022-08-19T13:46:17;22.60;99.90
17174;DHT22;8702;48.130;-1.696;2022-08-19T13:48:45;22.60;99.90
17174;DHT22;8702;48.130;-1.696;2022-08-19T13:51:14;22.10;99.90
17174;DHT22;8702;48.130;-1.696;2022-08-19T13:53:43;21.80;99.90
17174;DHT22;8702;48.130;-1.696;2022-08-19T13:56:13;21.70;99.90
17174;DHT22;8702;48.130;-1.696;2022-08-19T13:58:40;21.50;99.90
17174;DHT22;8702;48.130;-1.696;2022-08-19T14:01:08;21.50;99.90
17174;DHT22;8702;48.130;-1.696;2022-08-19T14:03:35;21.50;99.90
17174;DHT22;8702;48.130;-1.696;2022-08-19T14:06:02;21.40;99.90
17174;DHT22;8702;48.130;-1.696;2022-08-19T14:08:29;21.30;99.90
17174;DHT22;8702;48.130;-1.696;2022-08-19T14:10:59;21.50;99.90
17174;DHT22;8702;48.130;-1.696;2022-08-19T14:13:26;21.50;99.90
17174;DHT22;8702;48.130;-1.696;2022-08-19T14:15:53;21.50;99.90
17174;DHT22;8702;48.130;-1.696;2022-08-19T14:18:20;21.40;99.90
17174;DHT22;8702;48.130;-1.696;2022-08-19T14:20:47;21.40;99.90
17174;DHT22;8702;48.130;-1.696;2022-08-19T14:23:14;21.20;99.90
17174;DHT22;8702;48.130;-1.696;2022-08-19T14:25:41;21.20;99.90
17174;DHT22;8702;48.130;-1.696;2022-08-19T14:28:10;21.20;99.90
17174;DHT22;8702;48.130;-1.696;2022-08-19T14:30:37;21.10;99.90
17174;DHT22;8702;48.130;-1.696;2022-08-19T14:33:05;21.10;99.90
17174;DHT22;8702;48.130;-1.696;2022-08-19T14:35:33;21.10;99.90
17174;DHT22;8702;48.130;-1.696;2022-08-19T14:38:01;21.10;99.90
17174;DHT22;8702;48.130;-1.696;2022-08-19T14:40:29;21.10;99.90
17174;DHT22;8702;48.130;-1.696;2022-08-19T14:42:58;21.00;99.90
17174;DHT22;8702;48.130;-1.696;2022-08-19T14:45:31;21.00;99.90
17174;DHT22;8702;48.130;-1.696;2022-08-19T14:47:58;20.80;99.90
17174;DHT22;8702;48.130;-1.696;2022-08-19T14:50:26;20.80;99.90
17174;DHT22;8702;48.130;-1.696;2022-08-19T14:52:59;20.70;99.90
17174;DHT22;8702;48.130;-1.696;2022-08-19T14:55:26;20.60;99.90
17174;DHT22;8702;48.130;-1.696;2022-08-19T14:57:53;20.50;99.90
17174;DHT22;8702;48.130;-1.696;2022-08-19T15:00:21;20.50;99.90
17174;DHT22;8702;48.130;-1.696;2022-08-19T15:02:49;20.50;99.90
17174;DHT22;8702;48.130;-1.696;2022-08-19T15:05:17;20.40;99.90
17174;DHT22;8702;48.130;-1.696;2022-08-19T15:07:44;20.30;99.90
17174;DHT22;8702;48.130;-1.696;2022-08-19T15:10:13;20.40;99.90
17174;DHT22;8702;48.130;-1.696;2022-08-19T15:12:40;20.40;99.90
17174;DHT22;8702;48.130;-1.696;2022-08-19T15:15:10;20.50;99.90
17174;DHT22;8702;48.130;-1.696;2022-08-19T15:17:39;20.50;99.90
17174;DHT22;8702;48.130;-1.696;2022-08-19T15:20:09;20.50;99.90
17174;DHT22;8702;48.130;-1.696;2022-08-19T15:22:37;20.40;99.90
17174;DHT22;8702;48.130;-1.696;2022-08-19T15:25:05;20.40;99.90
17174;DHT22;8702;48.130;-1.696;2022-08-19T15:27:33;20.20;99.90
17174;DHT22;8702;48.130;-1.696;2022-08-19T15:30:01;19.90;99.90
17174;DHT22;8702;48.130;-1.696;2022-08-19T15:32:29;19.80;99.90
17174;DHT22;8702;48.130;-1.696;2022-08-19T15:34:56;19.80;99.90
17174;DHT22;8702;48.130;-1.696;2022-08-19T15:37:24;19.80;99.90
17174;DHT22;8702;48.130;-1.696;2022-08-19T15:39:51;19.90;99.90